sensor_id;sensor_type;location;lat;lon;timestamp;pressure;altitude;pressure_sealevel;temperature;humidity
10618;BME280;5356;43.526;26.534;2023-05-07T00:01:36;99460.25;;;11.88;100.00
10618;BME280;5356;43.526;26.534;2023-05-07T00:04:01;99462.19;;;12.00;100.00
10618;BME280;5356;43.526;26.534;2023-05-07T00:06:27;99457.44;;;12.02;100.00
10618;BME280;5356;43.526;26.534;2023-05-07T00:08:54;99453.00;;;11.96;100.00
10618;BME280;5356;43.526;26.534;2023-05-07T00:11:19;99456.31;;;11.91;100.00
10618;BME280;5356;43.526;26.534;2023-05-07T00:13:46;99460.47;;;11.87;100.00
10618;BME280;5356;43.526;26.534;2023-05-07T00:16:12;99455.16;;;11.80;100.00
10618;BME280;5356;43.526;26.534;2023-05-07T00:18:37;99454.75;;;11.83;100.00
10618;BME280;5356;43.526;26.534;2023-05-07T00:21:03;99452.50;;;11.80;100.00
10618;BME280;5356;43.526;26.534;2023-05-07T00:23:28;99453.66;;;11.66;100.00
10618;BME280;5356;43.526;26.534;2023-05-07T00:25:54;99458.09;;;11.54;100.00
10618;BME280;5356;43.526;26.534;2023-05-07T00:28:19;99460.28;;;11.38;100.00
10618;BME280;5356;43.526;26.534;2023-05-07T00:30:45;99446.50;;;11.41;100.00
10618;BME280;5356;43.526;26.534;2023-05-07T00:33:10;99447.66;;;11.52;100.00
10618;BME280;5356;43.526;26.534;2023-05-07T00:35:36;99436.31;;;11.57;100.00
10618;BME280;5356;43.526;26.534;2023-05-07T00:38:01;99449.66;;;11.57;100.00
10618;BME280;5356;43.526;26.534;2023-05-07T00:40:27;99442.16;;;11.47;100.00
10618;BME280;5356;43.526;26.534;2023-05-07T00:42:52;99450.53;;;11.51;100.00
10618;BME280;5356;43.526;26.534;2023-05-07T00:45:26;99442.53;;;11.51;100.00
10618;BME280;5356;43.526;26.534;2023-05-07T00:47:56;99448.06;;;11.49;100.00
10618;BME280;5356;43.526;26.534;2023-05-07T00:50:23;99445.25;;;11.44;100.00
10618;BME280;5356;43.526;26.534;2023-05-07T00:52:48;99449.22;;;11.35;100.00
10618;BME280;5356;43.526;26.534;2023-05-07T00:55:14;99444.56;;;11.30;100.00
10618;BME280;5356;43.526;26.534;2023-05-07T00:57:41;99447.66;;;11.27;100.00
10618;BME280;5356;43.526;26.534;2023-05-07T01:00:08;99445.00;;;11.27;100.00
10618;BME280;5356;43.526;26.534;2023-05-07T01:02:35;99443.34;;;11.26;100.00
10618;BME280;5356;43.526;26.534;2023-05-07T01:05:01;99434.31;;;11.27;100.00
10618;BME280;5356;43.526;26.534;2023-05-07T01:07:29;99435.56;;;11.24;100.00
10618;BME280;5356;43.526;26.534;2023-05-07T01:09:56;99434.41;;;11.14;100.00
10618;BME280;5356;43.526;26.534;2023-05-07T01:12:23;99434.69;;;11.06;100.00
10618;BME280;5356;43.526;26.534;2023-05-07T01:14:49;99433.69;;;11.00;100.00
10618;BME280;5356;43.526;26.534;2023-05-07T01:17:16;99431.25;;;10.98;100.00
10618;BME280;5356;43.526;26.534;2023-05-07T01:19:41;99438.81;;;11.01;100.00
10618;BME280;5356;43.526;26.534;2023-05-07T01:22:09;99437.16;;;11.00;100.00
10618;BME280;5356;43.526;26.534;2023-05-07T01:24:36;99437.78;;;11.02;100.00
10618;BME280;5356;43.526;26.534;2023-05-07T01:27:02;99430.41;;;10.98;100.00
10618;BME280;5356;43.526;26.534;2023-05-07T01:29:28;99423.09;;;10.93;100.00
10618;BME280;5356;43.526;26.534;2023-05-07T01:31:59;99425.59;;;10.88;100.00
10618;BME280;5356;43.526;26.534;2023-05-07T01:34:28;99433.03;;;10.79;100.00
10618;BME280;5356;43.526;26.534;2023-05-07T01:36:57;99424.91;;;10.68;100.00
10618;BME280;5356;43.526;26.534;2023-05-07T01:39:28;99425.09;;;10.66;100.00
10618;BME280;5356;43.526;26.534;2023-05-07T01:41:58;99422.00;;;10.69;100.00
10618;BME280;5356;43.526;26.534;2023-05-07T01:44:25;99416.09;;;10.67;100.00
10618;BME280;5356;43.526;26.534;2023-05-07T01:46:51;99419.56;;;10.68;100.00
10618;BME280;5356;43.526;26.534;2023-05-07T01:49:17;99420.81;;;10.65;100.00
10618;BME280;5356;43.526;26.534;2023-05-07T01:51:43;99415.09;;;10.62;100.00
10618;BME280;5356;43.526;26.534;2023-05-07T01:54:09;99408.13;;;10.61;100.00
10618;BME280;5356;43.526;26.534;2023-05-07T01:56:34;99414.50;;;10.60;100.00
10618;BME280;5356;43.526;26.534;2023-05-07T01:59:00;99415.50;;;10.59;100.00
10618;BME280;5356;43.526;26.534;2023-05-07T02:01:27;99405.13;;;10.50;100.00
10618;BME280;5356;43.526;26.534;2023-05-07T02:03:52;99402.91;;;10.47;100.00
10618;BME280;5356;43.526;26.534;2023-05-07T02:06:19;99405.97;;;10.44;100.00
10618;BME280;5356;43.526;26.534;2023-05-07T02:08:44;99404.13;;;10.45;100.00
10618;BME280;5356;43.526;26.534;2023-05-07T02:11:10;99397.81;;;10.39;100.00
10618;BME280;5356;43.526;26.534;2023-05-07T02:13:36;99399.88;;;10.37;100.00
10618;BME280;5356;43.526;26.534;2023-05-07T02:16:02;99394.75;;;10.36;100.00
10618;BME280;5356;43.526;26.534;2023-05-07T02:18:27;99391.88;;;10.37;100.00
10618;BME280;5356;43.526;26.534;2023-05-07T02:20:53;99387.59;;;10.36;100.00
10618;BME280;5356;43.526;26.534;2023-05-07T02:23:18;99392.91;;;10.36;100.00
10618;BME280;5356;43.526;26.534;2023-05-07T02:25:44;99394.34;;;10.32;100.00
10618;BME280;5356;43.526;26.534;2023-05-07T02:28:09;99397.84;;;10.26;100.00
10618;BME280;5356;43.526;26.534;2023-05-07T02:30:36;99392.56;;;10.19;100.00
10618;BME280;5356;43.526;26.534;2023-05-07T02:33:02;99396.47;;;10.17;100.00
10618;BME280;5356;43.526;26.534;2023-05-07T02:35:27;99399.13;;;10.17;100.00
10618;BME280;5356;43.526;26.534;2023-05-07T02:37:53;99406.25;;;10.16;100.00
10618;BME280;5356;43.526;26.534;2023-05-07T02:40:18;99396.47;;;10.17;100.00
10618;BME280;5356;43.526;26.534;2023-05-07T02:42:44;99394.38;;;10.19;100.00
10618;BME280;5356;43.526;26.534;2023-05-07T02:45:10;99401.34;;;10.20;100.00
10618;BME280;5356;43.526;26.534;2023-05-07T02:47:35;99393.78;;;10.17;100.00
10618;BME280;5356;43.526;26.534;2023-05-07T02:50:01;99394.00;;;10.15;100.00
10618;BME280;5356;43.526;26.534;2023-05-07T02:52:26;99397.50;;;10.09;100.00
10618;BME280;5356;43.526;26.534;2023-05-07T02:54:52;99400.63;;;9.99;100.00
10618;BME280;5356;43.526;26.534;2023-05-07T02:57:17;99399.97;;;10.04;100.00
10618;BME280;5356;43.526;26.534;2023-05-07T02:59:43;99408.78;;;10.04;100.00
10618;BME280;5356;43.526;26.534;2023-05-07T03:02:08;99404.72;;;9.95;100.00
10618;BME280;5356;43.526;26.534;2023-05-07T03:04:34;99408.00;;;9.97;100.00
10618;BME280;5356;43.526;26.534;2023-05-07T03:07:00;99410.84;;;10.02;100.00
10618;BME280;5356;43.526;26.534;2023-05-07T03:09:25;99404.69;;;10.02;100.00
10618;BME280;5356;43.526;26.534;2023-05-07T03:11:51;99412.94;;;9.87;100.00
10618;BME280;5356;43.526;26.534;2023-05-07T03:14:16;99410.50;;;9.79;100.00
10618;BME280;5356;43.526;26.534;2023-05-07T03:16:42;99413.56;;;9.76;100.00
10618;BME280;5356;43.526;26.534;2023-05-07T03:19:07;99418.28;;;9.80;100.00
10618;BME280;5356;43.526;26.534;2023-05-07T03:21:33;99423.56;;;9.87;100.00
10618;BME280;5356;43.526;26.534;2023-05-07T03:23:59;99419.00;;;10.07;100.00
10618;BME280;5356;43.526;26.534;2023-05-07T03:26:25;99434.72;;;10.16;100.00
10618;BME280;5356;43.526;26.534;2023-05-07T03:28:51;99431.44;;;10.20;100.00
10618;BME280;5356;43.526;26.534;2023-05-07T03:31:16;99432.25;;;10.21;100.00
10618;BME280;5356;43.526;26.534;2023-05-07T03:33:51;99425.31;;;10.20;100.00
10618;BME280;5356;43.526;26.534;2023-05-07T03:36:17;99436.34;;;10.23;100.00
10618;BME280;5356;43.526;26.534;2023-05-07T03:38:43;99434.28;;;10.32;100.00
10618;BME280;5356;43.526;26.534;2023-05-07T03:41:08;99433.00;;;10.41;100.00
10618;BME280;5356;43.526;26.534;2023-05-07T03:43:34;99439.13;;;10.48;100.00
10618;BME280;5356;43.526;26.534;2023-05-07T03:45:59;99438.91;;;10.50;100.00
10618;BME280;5356;43.526;26.534;2023-05-07T03:48:24;99441.56;;;10.50;100.00
10618;BME280;5356;43.526;26.534;2023-05-07T03:50:50;99437.91;;;10.51;100.00
10618;BME280;5356;43.526;26.534;2023-05-07T03:53:16;99440.53;;;10.57;100.00
10618;BME280;5356;43.526;26.534;2023-05-07T03:55:41;99434.34;;;10.64;100.00
10618;BME280;5356;43.526;26.534;2023-05-07T03:58:07;99436.75;;;10.72;100.00
10618;BME280;5356;43.526;26.534;2023-05-07T04:00:32;99442.69;;;10.74;100.00
10618;BME280;5356;43.526;26.534;2023-05-07T04:03:02;99440.41;;;10.77;100.00
10618;BME280;5356;43.526;26.534;2023-05-07T04:05:29;99442.44;;;10.82;100.00
10618;BME280;5356;43.526;26.534;2023-05-07T04:07:54;99434.81;;;10.86;100.00
10618;BME280;5356;43.526;26.534;2023-05-07T04:10:19;99444.41;;;10.93;100.00
10618;BME280;5356;43.526;26.534;2023-05-07T04:12:45;99449.69;;;11.00;100.00
10618;BME280;5356;43.526;26.534;2023-05-07T04:15:10;99444.72;;;11.04;100.00
10618;BME280;5356;43.526;26.534;2023-05-07T04:17:36;99454.75;;;11.08;100.00
10618;BME280;5356;43.526;26.534;2023-05-07T04:20:02;99456.56;;;11.14;100.00
10618;BME280;5356;43.526;26.534;2023-05-07T04:22:27;99452.22;;;11.20;100.00
10618;BME280;5356;43.526;26.534;2023-05-07T04:24:53;99452.75;;;11.29;100.00
10618;BME280;5356;43.526;26.534;2023-05-07T04:27:18;99450.25;;;11.34;100.00
10618;BME280;5356;43.526;26.534;2023-05-07T04:29:44;99450.19;;;11.40;100.00
10618;BME280;5356;43.526;26.534;2023-05-07T04:32:12;99456.75;;;11.44;100.00
10618;BME280;5356;43.526;26.534;2023-05-07T04:34:38;99455.25;;;11.49;100.00
10618;BME280;5356;43.526;26.534;2023-05-07T04:37:03;99459.72;;;11.55;100.00
10618;BME280;5356;43.526;26.534;2023-05-07T04:39:29;99456.63;;;11.58;100.00
10618;BME280;5356;43.526;26.534;2023-05-07T04:41:54;99452.84;;;11.65;100.00
10618;BME280;5356;43.526;26.534;2023-05-07T04:44:20;99453.22;;;11.69;100.00
10618;BME280;5356;43.526;26.534;2023-05-07T04:46:46;99463.75;;;11.64;100.00
10618;BME280;5356;43.526;26.534;2023-05-07T04:49:11;99458.84;;;11.61;100.00
10618;BME280;5356;43.526;26.534;2023-05-07T04:51:37;99460.56;;;11.55;100.00
10618;BME280;5356;43.526;26.534;2023-05-07T04:54:03;99470.19;;;11.56;100.00
10618;BME280;5356;43.526;26.534;2023-05-07T04:56:29;99470.88;;;11.70;100.00
10618;BME280;5356;43.526;26.534;2023-05-07T04:58:57;99468.94;;;11.77;100.00
10618;BME280;5356;43.526;26.534;2023-05-07T05:01:23;99463.41;;;11.79;100.00
10618;BME280;5356;43.526;26.534;2023-05-07T05:03:48;99469.09;;;11.89;100.00
10618;BME280;5356;43.526;26.534;2023-05-07T05:06:13;99475.00;;;11.91;100.00
10618;BME280;5356;43.526;26.534;2023-05-07T05:08:39;99464.47;;;11.96;100.00
10618;BME280;5356;43.526;26.534;2023-05-07T05:11:05;99462.78;;;12.02;100.00
10618;BME280;5356;43.526;26.534;2023-05-07T05:13:30;99459.66;;;12.05;100.00
10618;BME280;5356;43.526;26.534;2023-05-07T05:15:56;99454.94;;;12.07;100.00
10618;BME280;5356;43.526;26.534;2023-05-07T05:18:22;99462.03;;;12.13;100.00
10618;BME280;5356;43.526;26.534;2023-05-07T05:20:47;99465.03;;;12.23;100.00
10618;BME280;5356;43.526;26.534;2023-05-07T05:23:13;99468.84;;;12.27;100.00
10618;BME280;5356;43.526;26.534;2023-05-07T05:25:38;99461.06;;;12.44;100.00
10618;BME280;5356;43.526;26.534;2023-05-07T05:28:05;99459.16;;;12.63;100.00
10618;BME280;5356;43.526;26.534;2023-05-07T05:30:30;99460.84;;;12.76;100.00
10618;BME280;5356;43.526;26.534;2023-05-07T05:32:56;99459.34;;;12.80;100.00
10618;BME280;5356;43.526;26.534;2023-05-07T05:35:21;99461.72;;;12.88;100.00
10618;BME280;5356;43.526;26.534;2023-05-07T05:37:47;99463.34;;;13.01;100.00
10618;BME280;5356;43.526;26.534;2023-05-07T05:40:13;99461.91;;;13.17;100.00
10618;BME280;5356;43.526;26.534;2023-05-07T05:42:39;99464.03;;;13.27;100.00
10618;BME280;5356;43.526;26.534;2023-05-07T05:45:05;99461.00;;;13.35;100.00
10618;BME280;5356;43.526;26.534;2023-05-07T05:47:30;99466.50;;;13.40;100.00
10618;BME280;5356;43.526;26.534;2023-05-07T05:49:56;99463.94;;;13.57;100.00
10618;BME280;5356;43.526;26.534;2023-05-07T05:52:21;99465.09;;;13.96;100.00
10618;BME280;5356;43.526;26.534;2023-05-07T05:54:49;99465.41;;;14.11;100.00
10618;BME280;5356;43.526;26.534;2023-05-07T05:57:15;99467.75;;;14.20;100.00
10618;BME280;5356;43.526;26.534;2023-05-07T05:59:40;99465.97;;;14.25;100.00
10618;BME280;5356;43.526;26.534;2023-05-07T06:02:06;99462.78;;;14.40;100.00
10618;BME280;5356;43.526;26.534;2023-05-07T06:04:32;99469.88;;;14.58;100.00
10618;BME280;5356;43.526;26.534;2023-05-07T06:06:57;99459.59;;;14.67;100.00
10618;BME280;5356;43.526;26.534;2023-05-07T06:09:23;99463.84;;;14.79;100.00
10618;BME280;5356;43.526;26.534;2023-05-07T06:11:48;99463.78;;;14.91;100.00
10618;BME280;5356;43.526;26.534;2023-05-07T06:14:14;99459.72;;;15.05;100.00
10618;BME280;5356;43.526;26.534;2023-05-07T06:16:39;99469.59;;;15.17;100.00
10618;BME280;5356;43.526;26.534;2023-05-07T06:19:05;99473.09;;;15.34;100.00
10618;BME280;5356;43.526;26.534;2023-05-07T06:21:30;99464.09;;;15.40;99.67
10618;BME280;5356;43.526;26.534;2023-05-07T06:23:56;99462.69;;;15.55;98.33
10618;BME280;5356;43.526;26.534;2023-05-07T06:26:21;99462.94;;;15.70;97.97
10618;BME280;5356;43.526;26.534;2023-05-07T06:28:46;99462.09;;;15.86;97.58
10618;BME280;5356;43.526;26.534;2023-05-07T06:31:13;99461.56;;;16.06;97.34
10618;BME280;5356;43.526;26.534;2023-05-07T06:33:39;99459.03;;;16.16;95.99
10618;BME280;5356;43.526;26.534;2023-05-07T06:36:07;99465.09;;;16.29;94.75
10618;BME280;5356;43.526;26.534;2023-05-07T06:38:33;99468.22;;;16.43;94.18
10618;BME280;5356;43.526;26.534;2023-05-07T06:40:59;99471.84;;;16.53;92.75
10618;BME280;5356;43.526;26.534;2023-05-07T06:43:24;99470.56;;;16.61;90.07
10618;BME280;5356;43.526;26.534;2023-05-07T06:45:50;99467.19;;;16.71;90.64
10618;BME280;5356;43.526;26.534;2023-05-07T06:48:16;99456.53;;;16.81;89.73
10618;BME280;5356;43.526;26.534;2023-05-07T06:50:42;99462.84;;;16.92;87.88
10618;BME280;5356;43.526;26.534;2023-05-07T06:53:07;99461.06;;;17.02;87.63
10618;BME280;5356;43.526;26.534;2023-05-07T06:55:33;99460.34;;;17.12;88.25
10618;BME280;5356;43.526;26.534;2023-05-07T06:57:58;99452.91;;;17.24;88.06
10618;BME280;5356;43.526;26.534;2023-05-07T07:00:26;99455.16;;;17.38;86.30
10618;BME280;5356;43.526;26.534;2023-05-07T07:02:53;99454.97;;;17.44;85.57
10618;BME280;5356;43.526;26.534;2023-05-07T07:05:18;99453.16;;;17.55;85.14
10618;BME280;5356;43.526;26.534;2023-05-07T07:07:44;99463.13;;;17.60;82.68
10618;BME280;5356;43.526;26.534;2023-05-07T07:10:10;99467.06;;;17.79;83.05
10618;BME280;5356;43.526;26.534;2023-05-07T07:12:35;99462.28;;;17.91;80.85
10618;BME280;5356;43.526;26.534;2023-05-07T07:15:00;99468.56;;;18.02;80.66
10618;BME280;5356;43.526;26.534;2023-05-07T07:17:26;99466.44;;;18.14;78.92
10618;BME280;5356;43.526;26.534;2023-05-07T07:19:51;99464.34;;;18.22;76.47
10618;BME280;5356;43.526;26.534;2023-05-07T07:22:17;99470.00;;;18.25;75.00
10618;BME280;5356;43.526;26.534;2023-05-07T07:24:42;99470.28;;;18.24;73.92
10618;BME280;5356;43.526;26.534;2023-05-07T07:27:08;99482.25;;;18.43;74.22
10618;BME280;5356;43.526;26.534;2023-05-07T07:29:33;99480.13;;;18.60;73.26
10618;BME280;5356;43.526;26.534;2023-05-07T07:31:59;99471.03;;;18.77;73.57
10618;BME280;5356;43.526;26.534;2023-05-07T07:34:24;99471.84;;;18.88;71.43
10618;BME280;5356;43.526;26.534;2023-05-07T07:36:50;99471.59;;;18.99;69.85
10618;BME280;5356;43.526;26.534;2023-05-07T07:39:15;99484.00;;;18.90;67.27
10618;BME280;5356;43.526;26.534;2023-05-07T07:41:41;99475.13;;;19.05;67.62
10618;BME280;5356;43.526;26.534;2023-05-07T07:44:06;99474.34;;;19.15;67.22
10618;BME280;5356;43.526;26.534;2023-05-07T07:46:33;99476.47;;;19.13;66.39
10618;BME280;5356;43.526;26.534;2023-05-07T07:48:58;99477.88;;;19.31;66.25
10618;BME280;5356;43.526;26.534;2023-05-07T07:51:25;99487.84;;;19.40;64.94
10618;BME280;5356;43.526;26.534;2023-05-07T07:53:51;99486.75;;;19.41;62.94
10618;BME280;5356;43.526;26.534;2023-05-07T07:56:18;99484.31;;;19.55;63.39
10618;BME280;5356;43.526;26.534;2023-05-07T07:58:43;99469.75;;;19.46;59.72
10618;BME280;5356;43.526;26.534;2023-05-07T08:01:09;99474.31;;;19.56;61.36
10618;BME280;5356;43.526;26.534;2023-05-07T08:03:34;99467.31;;;19.65;60.45
10618;BME280;5356;43.526;26.534;2023-05-07T08:06:00;99467.28;;;19.80;61.49
10618;BME280;5356;43.526;26.534;2023-05-07T08:08:26;99464.28;;;19.87;61.48
10618;BME280;5356;43.526;26.534;2023-05-07T08:10:51;99466.75;;;19.83;61.00
10618;BME280;5356;43.526;26.534;2023-05-07T08:13:17;99465.16;;;19.77;59.37
10618;BME280;5356;43.526;26.534;2023-05-07T08:15:43;99461.09;;;19.74;58.68
10618;BME280;5356;43.526;26.534;2023-05-07T08:18:08;99458.38;;;19.59;55.94
10618;BME280;5356;43.526;26.534;2023-05-07T08:20:35;99468.66;;;19.72;58.15
10618;BME280;5356;43.526;26.534;2023-05-07T08:23:04;99469.72;;;19.87;57.04
10618;BME280;5356;43.526;26.534;2023-05-07T08:25:33;99471.28;;;20.08;55.72
10618;BME280;5356;43.526;26.534;2023-05-07T08:27:59;99462.06;;;20.14;54.40
10618;BME280;5356;43.526;26.534;2023-05-07T08:30:25;99468.56;;;20.13;53.23
10618;BME280;5356;43.526;26.534;2023-05-07T08:32:50;99456.09;;;20.23;51.63
10618;BME280;5356;43.526;26.534;2023-05-07T08:35:15;99463.94;;;20.24;49.21
10618;BME280;5356;43.526;26.534;2023-05-07T08:37:41;99460.38;;;20.29;49.05
10618;BME280;5356;43.526;26.534;2023-05-07T08:40:07;99455.22;;;20.32;49.99
10618;BME280;5356;43.526;26.534;2023-05-07T08:42:35;99453.84;;;20.35;50.27
10618;BME280;5356;43.526;26.534;2023-05-07T08:45:02;99456.50;;;20.50;50.93
10618;BME280;5356;43.526;26.534;2023-05-07T08:47:38;99458.09;;;20.61;50.43
10618;BME280;5356;43.526;26.534;2023-05-07T08:50:06;99457.47;;;20.75;50.11
10618;BME280;5356;43.526;26.534;2023-05-07T08:52:31;99465.78;;;20.89;49.73
10618;BME280;5356;43.526;26.534;2023-05-07T08:54:57;99453.84;;;20.95;49.57
10618;BME280;5356;43.526;26.534;2023-05-07T08:57:24;99448.09;;;21.01;49.05
10618;BME280;5356;43.526;26.534;2023-05-07T08:59:49;99443.47;;;21.07;48.85
10618;BME280;5356;43.526;26.534;2023-05-07T09:02:15;99443.44;;;21.12;48.49
10618;BME280;5356;43.526;26.534;2023-05-07T09:04:41;99444.66;;;21.25;47.86
10618;BME280;5356;43.526;26.534;2023-05-07T09:07:07;99445.72;;;21.29;48.37
10618;BME280;5356;43.526;26.534;2023-05-07T09:09:33;99439.66;;;21.42;48.61
10618;BME280;5356;43.526;26.534;2023-05-07T09:11:59;99434.38;;;21.56;48.28
10618;BME280;5356;43.526;26.534;2023-05-07T09:14:25;99430.88;;;21.56;47.53
10618;BME280;5356;43.526;26.534;2023-05-07T09:16:52;99439.22;;;21.59;47.01
10618;BME280;5356;43.526;26.534;2023-05-07T09:19:22;99441.09;;;21.64;47.38
10618;BME280;5356;43.526;26.534;2023-05-07T09:21:48;99441.31;;;21.67;47.35
10618;BME280;5356;43.526;26.534;2023-05-07T09:24:15;99447.47;;;21.78;46.53
10618;BME280;5356;43.526;26.534;2023-05-07T09:26:41;99444.53;;;21.74;45.91
10618;BME280;5356;43.526;26.534;2023-05-07T09:29:07;99440.66;;;21.81;45.42
10618;BME280;5356;43.526;26.534;2023-05-07T09:31:36;99440.25;;;21.92;45.33
10618;BME280;5356;43.526;26.534;2023-05-07T09:34:04;99436.03;;;22.05;45.32
10618;BME280;5356;43.526;26.534;2023-05-07T09:36:31;99431.84;;;21.94;44.18
10618;BME280;5356;43.526;26.534;2023-05-07T09:38:59;99429.19;;;21.89;43.86
10618;BME280;5356;43.526;26.534;2023-05-07T09:41:26;99430.84;;;21.85;43.83
10618;BME280;5356;43.526;26.534;2023-05-07T09:43:54;99430.16;;;21.98;44.10
10618;BME280;5356;43.526;26.534;2023-05-07T09:46:27;99415.88;;;22.11;45.06
10618;BME280;5356;43.526;26.534;2023-05-07T09:48:57;99424.44;;;22.24;45.41
10618;BME280;5356;43.526;26.534;2023-05-07T09:51:36;99407.66;;;22.40;44.56
10618;BME280;5356;43.526;26.534;2023-05-07T09:54:04;99414.56;;;22.52;43.87
10618;BME280;5356;43.526;26.534;2023-05-07T09:56:30;99408.09;;;22.29;42.64
10618;BME280;5356;43.526;26.534;2023-05-07T09:58:59;99410.66;;;22.20;44.14
10618;BME280;5356;43.526;26.534;2023-05-07T10:01:26;99409.78;;;22.44;44.85
10618;BME280;5356;43.526;26.534;2023-05-07T10:03:53;99414.13;;;22.63;43.91
10618;BME280;5356;43.526;26.534;2023-05-07T10:06:22;99407.50;;;22.70;44.05
10618;BME280;5356;43.526;26.534;2023-05-07T10:08:48;99402.34;;;22.87;44.31
10618;BME280;5356;43.526;26.534;2023-05-07T10:11:14;99402.81;;;22.94;43.61
10618;BME280;5356;43.526;26.534;2023-05-07T10:13:41;99403.16;;;23.06;43.76
10618;BME280;5356;43.526;26.534;2023-05-07T10:16:08;99401.72;;;23.28;43.63
10618;BME280;5356;43.526;26.534;2023-05-07T10:18:33;99403.34;;;23.29;42.73
10618;BME280;5356;43.526;26.534;2023-05-07T10:21:08;99401.03;;;23.03;42.29
10618;BME280;5356;43.526;26.534;2023-05-07T10:23:36;99403.03;;;22.98;42.61
10618;BME280;5356;43.526;26.534;2023-05-07T10:26:05;99390.63;;;23.11;42.94
10618;BME280;5356;43.526;26.534;2023-05-07T10:28:36;99395.25;;;23.10;41.47
10618;BME280;5356;43.526;26.534;2023-05-07T10:33:54;99391.94;;;22.94;41.24
10618;BME280;5356;43.526;26.534;2023-05-07T10:36:21;99385.69;;;22.94;41.21
10618;BME280;5356;43.526;26.534;2023-05-07T10:38:47;99385.94;;;22.97;41.57
10618;BME280;5356;43.526;26.534;2023-05-07T10:41:12;99382.69;;;22.95;41.50
10618;BME280;5356;43.526;26.534;2023-05-07T10:43:43;99383.53;;;22.96;40.77
10618;BME280;5356;43.526;26.534;2023-05-07T10:46:20;99379.31;;;23.03;42.20
10618;BME280;5356;43.526;26.534;2023-05-07T10:51:32;99381.63;;;23.57;42.20
10618;BME280;5356;43.526;26.534;2023-05-07T10:56:42;99375.19;;;23.66;40.73
10618;BME280;5356;43.526;26.534;2023-05-07T11:01:53;99369.53;;;23.63;41.55
10618;BME280;5356;43.526;26.534;2023-05-07T11:04:19;99373.78;;;23.69;41.16
10618;BME280;5356;43.526;26.534;2023-05-07T11:13:02;99365.59;;;23.69;40.61
10618;BME280;5356;43.526;26.534;2023-05-07T11:15:05;99368.06;;;23.84;41.03
10618;BME280;5356;43.526;26.534;2023-05-07T11:17:32;99379.66;;;23.90;40.31
10618;BME280;5356;43.526;26.534;2023-05-07T11:20:00;99362.00;;;23.60;40.66
10618;BME280;5356;43.526;26.534;2023-05-07T11:25:03;99351.44;;;23.86;40.40
10618;BME280;5356;43.526;26.534;2023-05-07T11:27:29;99358.69;;;24.04;40.65
10618;BME280;5356;43.526;26.534;2023-05-07T11:29:55;99352.81;;;24.11;40.45
10618;BME280;5356;43.526;26.534;2023-05-07T11:32:24;99355.44;;;24.16;40.01
10618;BME280;5356;43.526;26.534;2023-05-07T11:34:57;99348.03;;;24.30;40.30
10618;BME280;5356;43.526;26.534;2023-05-07T11:37:24;99359.44;;;24.32;40.68
10618;BME280;5356;43.526;26.534;2023-05-07T11:39:50;99361.22;;;24.37;39.99
10618;BME280;5356;43.526;26.534;2023-05-07T11:42:33;99353.75;;;24.42;41.01
10618;BME280;5356;43.526;26.534;2023-05-07T11:45:00;99350.53;;;24.40;39.79
10618;BME280;5356;43.526;26.534;2023-05-07T11:47:26;99353.75;;;24.42;39.42
10618;BME280;5356;43.526;26.534;2023-05-07T11:49:54;99360.59;;;24.54;39.14
10618;BME280;5356;43.526;26.534;2023-05-07T11:52:22;99353.75;;;24.42;39.02
10618;BME280;5356;43.526;26.534;2023-05-07T11:54:55;99351.66;;;24.26;38.05
10618;BME280;5356;43.526;26.534;2023-05-07T11:57:22;99345.72;;;24.37;38.94
10618;BME280;5356;43.526;26.534;2023-05-07T11:59:53;99342.47;;;24.35;38.88
10618;BME280;5356;43.526;26.534;2023-05-07T12:02:18;99344.69;;;24.33;39.56
10618;BME280;5356;43.526;26.534;2023-05-07T12:04:44;99341.91;;;24.61;39.08
10618;BME280;5356;43.526;26.534;2023-05-07T12:07:16;99346.50;;;24.74;39.11
10618;BME280;5356;43.526;26.534;2023-05-07T12:09:42;99335.59;;;24.97;39.83
10618;BME280;5356;43.526;26.534;2023-05-07T12:12:08;99319.13;;;25.10;39.20
10618;BME280;5356;43.526;26.534;2023-05-07T12:14:40;99313.25;;;24.86;38.52
10618;BME280;5356;43.526;26.534;2023-05-07T12:17:11;99312.00;;;24.70;38.99
10618;BME280;5356;43.526;26.534;2023-05-07T12:19:38;99311.31;;;24.86;39.73
10618;BME280;5356;43.526;26.534;2023-05-07T12:22:05;99322.56;;;25.16;39.67
10618;BME280;5356;43.526;26.534;2023-05-07T12:24:50;99317.78;;;25.22;39.51
10618;BME280;5356;43.526;26.534;2023-05-07T12:27:21;99312.81;;;25.24;39.84
10618;BME280;5356;43.526;26.534;2023-05-07T12:29:47;99315.03;;;25.53;39.43
10618;BME280;5356;43.526;26.534;2023-05-07T12:32:16;99304.75;;;25.50;38.07
10618;BME280;5356;43.526;26.534;2023-05-07T12:34:42;99302.97;;;25.45;38.83
10618;BME280;5356;43.526;26.534;2023-05-07T12:37:07;99310.19;;;25.50;38.23
10618;BME280;5356;43.526;26.534;2023-05-07T12:39:33;99307.00;;;25.48;37.52
10618;BME280;5356;43.526;26.534;2023-05-07T12:41:59;99298.16;;;25.42;37.60
10618;BME280;5356;43.526;26.534;2023-05-07T12:44:26;99304.50;;;25.77;37.94
10618;BME280;5356;43.526;26.534;2023-05-07T12:46:54;99301.13;;;25.81;37.74
10618;BME280;5356;43.526;26.534;2023-05-07T12:49:19;99300.09;;;25.99;37.97
10618;BME280;5356;43.526;26.534;2023-05-07T12:51:47;99299.59;;;25.97;37.12
10618;BME280;5356;43.526;26.534;2023-05-07T12:54:13;99300.81;;;25.73;37.41
10618;BME280;5356;43.526;26.534;2023-05-07T12:56:39;99295.16;;;25.61;37.60
10618;BME280;5356;43.526;26.534;2023-05-07T12:59:05;99298.88;;;25.65;37.21
10618;BME280;5356;43.526;26.534;2023-05-07T13:01:31;99287.69;;;25.84;37.44
10618;BME280;5356;43.526;26.534;2023-05-07T13:04:01;99284.00;;;26.06;37.60
10618;BME280;5356;43.526;26.534;2023-05-07T13:06:29;99280.00;;;25.95;36.85
10618;BME280;5356;43.526;26.534;2023-05-07T13:08:55;99288.97;;;25.87;37.34
10618;BME280;5356;43.526;26.534;2023-05-07T13:11:20;99278.38;;;25.85;36.99